sensor_id;sensor_type;location;lat;lon;timestamp;P1;durP1;ratioP1;P2;durP2;ratioP2
17422;SDS011;8829;47.932;7.810;2022-08-20T00:01:56;3.70;;;3.33;;
17422;SDS011;8829;47.932;7.810;2022-08-20T00:04:23;4.10;;;2.90;;
17422;SDS011;8829;47.932;7.810;2022-08-20T00:06:50;3.40;;;3.20;;
17422;SDS011;8829;47.932;7.810;2022-08-20T00:09:17;4.33;;;3.27;;
17422;SDS011;8829;47.932;7.810;2022-08-20T00:11:45;3.50;;;3.20;;
17422;SDS011;8829;47.932;7.810;2022-08-20T00:14:12;3.80;;;2.70;;
17422;SDS011;8829;47.932;7.810;2022-08-20T00:16:39;4.97;;;3.30;;
17422;SDS011;8829;47.932;7.810;2022-08-20T00:19:07;6.70;;;3.33;;
17422;SDS011;8829;47.932;7.810;2022-08-20T00:21:35;3.97;;;3.00;;
17422;SDS011;8829;47.932;7.810;2022-08-20T00:24:02;3.37;;;3.13;;
17422;SDS011;8829;47.932;7.810;2022-08-20T00:26:30;5.23;;;3.60;;
17422;SDS011;8829;47.932;7.810;2022-08-20T00:28:58;4.47;;;3.17;;
17422;SDS011;8829;47.932;7.810;2022-08-20T00:31:25;3.30;;;3.00;;
17422;SDS011;8829;47.932;7.810;2022-08-20T00:33:52;3.50;;;3.20;;
17422;SDS011;8829;47.932;7.810;2022-08-20T00:36:20;3.67;;;3.40;;
17422;SDS011;8829;47.932;7.810;2022-08-20T00:38:47;3.30;;;3.00;;
17422;SDS011;8829;47.932;7.810;2022-08-20T00:41:16;5.53;;;3.20;;
17422;SDS011;8829;47.932;7.810;2022-08-20T00:43:47;3.30;;;3.10;;
17422;SDS011;8829;47.932;7.810;2022-08-20T00:46:18;3.77;;;3.40;;
17422;SDS011;8829;47.932;7.810;2022-08-20T00:48:48;4.13;;;3.07;;
17422;SDS011;8829;47.932;7.810;2022-08-20T00:51:20;4.90;;;3.30;;
17422;SDS011;8829;47.932;7.810;2022-08-20T00:53:52;3.13;;;2.93;;
17422;SDS011;8829;47.932;7.810;2022-08-20T00:56:20;3.87;;;3.30;;
17422;SDS011;8829;47.932;7.810;2022-08-20T00:58:48;3.37;;;3.17;;
17422;SDS011;8829;47.932;7.810;2022-08-20T01:01:18;3.30;;;3.00;;
17422;SDS011;8829;47.932;7.810;2022-08-20T01:03:47;5.07;;;2.70;;
17422;SDS011;8829;47.932;7.810;2022-08-20T01:06:19;3.70;;;3.40;;
17422;SDS011;8829;47.932;7.810;2022-08-20T01:08:46;3.50;;;3.30;;
17422;SDS011;8829;47.932;7.810;2022-08-20T01:11:13;3.37;;;3.07;;
17422;SDS011;8829;47.932;7.810;2022-08-20T01:13:40;3.07;;;2.87;;
17422;SDS011;8829;47.932;7.810;2022-08-20T01:16:13;3.10;;;2.90;;
17422;SDS011;8829;47.932;7.810;2022-08-20T01:18:46;3.20;;;2.73;;
17422;SDS011;8829;47.932;7.810;2022-08-20T01:21:14;3.03;;;2.77;;
17422;SDS011;8829;47.932;7.810;2022-08-20T01:23:47;3.00;;;2.60;;
17422;SDS011;8829;47.932;7.810;2022-08-20T01:26:21;4.80;;;2.27;;
17422;SDS011;8829;47.932;7.810;2022-08-20T01:28:51;2.80;;;2.60;;
17422;SDS011;8829;47.932;7.810;2022-08-20T01:31:21;4.63;;;2.70;;
17422;SDS011;8829;47.932;7.810;2022-08-20T01:33:50;4.50;;;2.27;;
17422;SDS011;8829;47.932;7.810;2022-08-20T01:36:20;7.63;;;2.50;;
17422;SDS011;8829;47.932;7.810;2022-08-20T01:38:49;2.07;;;1.97;;
17422;SDS011;8829;47.932;7.810;2022-08-20T01:41:27;2.47;;;2.27;;
17422;SDS011;8829;47.932;7.810;2022-08-20T01:44:04;4.03;;;2.50;;
17422;SDS011;8829;47.932;7.810;2022-08-20T01:46:35;6.23;;;2.37;;
17422;SDS011;8829;47.932;7.810;2022-08-20T01:49:06;2.60;;;2.07;;
17422;SDS011;8829;47.932;7.810;2022-08-20T01:51:35;2.20;;;2.10;;
17422;SDS011;8829;47.932;7.810;2022-08-20T01:54:03;3.60;;;1.97;;
17422;SDS011;8829;47.932;7.810;2022-08-20T01:56:33;4.97;;;2.17;;
17422;SDS011;8829;47.932;7.810;2022-08-20T01:59:02;2.70;;;2.50;;
17422;SDS011;8829;47.932;7.810;2022-08-20T02:01:32;4.57;;;3.07;;
17422;SDS011;8829;47.932;7.810;2022-08-20T02:04:01;3.07;;;2.43;;
17422;SDS011;8829;47.932;7.810;2022-08-20T02:06:31;2.10;;;2.00;;
17422;SDS011;8829;47.932;7.810;2022-08-20T02:09:01;2.60;;;2.50;;
17422;SDS011;8829;47.932;7.810;2022-08-20T02:11:29;2.33;;;2.23;;
17422;SDS011;8829;47.932;7.810;2022-08-20T02:13:59;2.60;;;2.17;;
17422;SDS011;8829;47.932;7.810;2022-08-20T02:16:28;2.30;;;2.20;;
17422;SDS011;8829;47.932;7.810;2022-08-20T02:18:57;2.40;;;2.30;;
17422;SDS011;8829;47.932;7.810;2022-08-20T02:21:28;2.37;;;1.90;;
17422;SDS011;8829;47.932;7.810;2022-08-20T02:23:58;2.47;;;2.00;;
17422;SDS011;8829;47.932;7.810;2022-08-20T02:26:25;2.83;;;2.17;;
17422;SDS011;8829;47.932;7.810;2022-08-20T02:28:53;3.40;;;2.17;;
17422;SDS011;8829;47.932;7.810;2022-08-20T02:31:22;1.87;;;1.67;;
17422;SDS011;8829;47.932;7.810;2022-08-20T02:33:50;1.90;;;1.80;;
17422;SDS011;8829;47.932;7.810;2022-08-20T02:36:17;2.03;;;1.50;;
17422;SDS011;8829;47.932;7.810;2022-08-20T02:38:45;2.13;;;1.93;;
17422;SDS011;8829;47.932;7.810;2022-08-20T02:41:12;1.67;;;1.57;;
17422;SDS011;8829;47.932;7.810;2022-08-20T02:43:40;2.63;;;1.70;;
17422;SDS011;8829;47.932;7.810;2022-08-20T02:46:08;3.57;;;1.70;;
17422;SDS011;8829;47.932;7.810;2022-08-20T02:48:36;2.10;;;1.40;;
17422;SDS011;8829;47.932;7.810;2022-08-20T02:51:05;2.97;;;1.50;;
17422;SDS011;8829;47.932;7.810;2022-08-20T02:53:33;1.63;;;1.30;;
17422;SDS011;8829;47.932;7.810;2022-08-20T02:56:03;1.60;;;1.50;;
17422;SDS011;8829;47.932;7.810;2022-08-20T02:58:30;2.80;;;1.50;;
17422;SDS011;8829;47.932;7.810;2022-08-20T03:00:59;2.80;;;1.40;;
17422;SDS011;8829;47.932;7.810;2022-08-20T03:03:27;1.70;;;1.60;;
17422;SDS011;8829;47.932;7.810;2022-08-20T03:05:56;4.43;;;1.30;;
17422;SDS011;8829;47.932;7.810;2022-08-20T03:08:24;5.60;;;1.60;;
17422;SDS011;8829;47.932;7.810;2022-08-20T03:10:51;1.97;;;1.40;;
17422;SDS011;8829;47.932;7.810;2022-08-20T03:13:19;1.43;;;1.33;;
17422;SDS011;8829;47.932;7.810;2022-08-20T03:15:47;2.93;;;1.93;;
17422;SDS011;8829;47.932;7.810;2022-08-20T03:18:16;2.20;;;1.73;;
17422;SDS011;8829;47.932;7.810;2022-08-20T03:20:44;3.63;;;2.10;;
17422;SDS011;8829;47.932;7.810;2022-08-20T03:23:13;1.97;;;1.60;;
17422;SDS011;8829;47.932;7.810;2022-08-20T03:25:41;2.53;;;1.50;;
17422;SDS011;8829;47.932;7.810;2022-08-20T03:28:08;3.17;;;1.77;;
17422;SDS011;8829;47.932;7.810;2022-08-20T03:30:36;2.10;;;1.80;;
17422;SDS011;8829;47.932;7.810;2022-08-20T03:33:03;1.30;;;1.30;;
17422;SDS011;8829;47.932;7.810;2022-08-20T03:35:31;1.80;;;1.47;;
17422;SDS011;8829;47.932;7.810;2022-08-20T03:37:58;1.30;;;1.30;;
17422;SDS011;8829;47.932;7.810;2022-08-20T03:40:28;1.87;;;1.77;;
17422;SDS011;8829;47.932;7.810;2022-08-20T03:42:58;1.80;;;1.70;;
17422;SDS011;8829;47.932;7.810;2022-08-20T03:45:26;1.80;;;1.70;;
17422;SDS011;8829;47.932;7.810;2022-08-20T03:47:54;1.50;;;1.40;;
17422;SDS011;8829;47.932;7.810;2022-08-20T03:50:22;1.70;;;1.60;;
17422;SDS011;8829;47.932;7.810;2022-08-20T03:52:52;1.60;;;1.50;;
17422;SDS011;8829;47.932;7.810;2022-08-20T03:55:21;2.70;;;1.50;;
17422;SDS011;8829;47.932;7.810;2022-08-20T03:57:51;1.63;;;1.50;;
17422;SDS011;8829;47.932;7.810;2022-08-20T04:00:21;1.43;;;1.43;;
17422;SDS011;8829;47.932;7.810;2022-08-20T04:02:49;2.37;;;1.40;;
17422;SDS011;8829;47.932;7.810;2022-08-20T04:05:16;2.20;;;1.40;;
17422;SDS011;8829;47.932;7.810;2022-08-20T04:07:45;5.57;;;1.80;;
17422;SDS011;8829;47.932;7.810;2022-08-20T04:10:12;1.60;;;1.47;;
17422;SDS011;8829;47.932;7.810;2022-08-20T04:12:39;4.00;;;1.10;;
17422;SDS011;8829;47.932;7.810;2022-08-20T04:15:08;1.53;;;1.43;;
17422;SDS011;8829;47.932;7.810;2022-08-20T04:17:36;2.03;;;1.43;;
17422;SDS011;8829;47.932;7.810;2022-08-20T04:20:06;2.13;;;2.00;;
17422;SDS011;8829;47.932;7.810;2022-08-20T04:22:35;3.37;;;2.23;;
17422;SDS011;8829;47.932;7.810;2022-08-20T04:25:02;2.83;;;2.10;;
17422;SDS011;8829;47.932;7.810;2022-08-20T04:27:30;2.10;;;2.00;;
17422;SDS011;8829;47.932;7.810;2022-08-20T04:29:57;1.80;;;1.70;;
17422;SDS011;8829;47.932;7.810;2022-08-20T04:32:28;2.03;;;1.87;;
17422;SDS011;8829;47.932;7.810;2022-08-20T04:34:55;2.23;;;2.13;;
17422;SDS011;8829;47.932;7.810;2022-08-20T04:37:22;2.33;;;2.23;;
17422;SDS011;8829;47.932;7.810;2022-08-20T04:39:50;3.20;;;2.13;;
17422;SDS011;8829;47.932;7.810;2022-08-20T04:42:30;4.00;;;2.30;;
17422;SDS011;8829;47.932;7.810;2022-08-20T04:44:57;3.67;;;2.00;;
17422;SDS011;8829;47.932;7.810;2022-08-20T04:47:24;2.10;;;2.00;;
17422;SDS011;8829;47.932;7.810;2022-08-20T04:49:53;2.53;;;2.27;;
17422;SDS011;8829;47.932;7.810;2022-08-20T04:52:24;2.57;;;2.37;;
17422;SDS011;8829;47.932;7.810;2022-08-20T04:54:52;2.07;;;1.97;;
17422;SDS011;8829;47.932;7.810;2022-08-20T04:57:20;2.10;;;1.90;;
17422;SDS011;8829;47.932;7.810;2022-08-20T04:59:50;2.07;;;1.97;;
17422;SDS011;8829;47.932;7.810;2022-08-20T05:02:17;4.57;;;2.10;;
17422;SDS011;8829;47.932;7.810;2022-08-20T05:04:44;3.43;;;2.00;;
17422;SDS011;8829;47.932;7.810;2022-08-20T05:07:13;1.90;;;1.80;;
17422;SDS011;8829;47.932;7.810;2022-08-20T05:09:42;4.10;;;1.80;;
17422;SDS011;8829;47.932;7.810;2022-08-20T05:12:09;1.87;;;1.77;;
17422;SDS011;8829;47.932;7.810;2022-08-20T05:14:42;2.00;;;1.90;;
17422;SDS011;8829;47.932;7.810;2022-08-20T05:17:09;1.90;;;1.80;;
17422;SDS011;8829;47.932;7.810;2022-08-20T05:19:39;2.23;;;1.93;;
17422;SDS011;8829;47.932;7.810;2022-08-20T05:22:06;3.00;;;2.00;;
17422;SDS011;8829;47.932;7.810;2022-08-20T05:24:35;1.80;;;1.70;;
17422;SDS011;8829;47.932;7.810;2022-08-20T05:27:03;2.30;;;1.87;;
17422;SDS011;8829;47.932;7.810;2022-08-20T05:29:30;2.03;;;1.93;;
17422;SDS011;8829;47.932;7.810;2022-08-20T05:31:57;2.17;;;1.97;;
17422;SDS011;8829;47.932;7.810;2022-08-20T05:34:24;3.13;;;2.13;;
17422;SDS011;8829;47.932;7.810;2022-08-20T05:36:51;1.70;;;1.60;;
17422;SDS011;8829;47.932;7.810;2022-08-20T05:39:19;2.87;;;1.83;;
17422;SDS011;8829;47.932;7.810;2022-08-20T05:41:49;2.20;;;2.00;;
17422;SDS011;8829;47.932;7.810;2022-08-20T05:44:16;2.43;;;2.23;;
17422;SDS011;8829;47.932;7.810;2022-08-20T05:46:45;2.60;;;2.20;;
17422;SDS011;8829;47.932;7.810;2022-08-20T05:49:13;3.43;;;2.30;;
17422;SDS011;8829;47.932;7.810;2022-08-20T05:51:43;2.00;;;1.90;;
17422;SDS011;8829;47.932;7.810;2022-08-20T05:54:11;2.30;;;2.07;;
17422;SDS011;8829;47.932;7.810;2022-08-20T05:56:39;3.40;;;2.60;;
17422;SDS011;8829;47.932;7.810;2022-08-20T05:59:08;2.57;;;2.37;;
17422;SDS011;8829;47.932;7.810;2022-08-20T06:01:37;2.40;;;2.30;;
17422;SDS011;8829;47.932;7.810;2022-08-20T06:04:05;2.80;;;2.60;;
17422;SDS011;8829;47.932;7.810;2022-08-20T06:07:00;2.93;;;2.60;;
17422;SDS011;8829;47.932;7.810;2022-08-20T06:09:30;3.23;;;2.50;;
17422;SDS011;8829;47.932;7.810;2022-08-20T06:11:57;2.70;;;2.50;;
17422;SDS011;8829;47.932;7.810;2022-08-20T06:14:25;2.53;;;2.33;;
17422;SDS011;8829;47.932;7.810;2022-08-20T06:16:52;5.20;;;2.77;;
17422;SDS011;8829;47.932;7.810;2022-08-20T06:19:19;3.30;;;2.10;;
17422;SDS011;8829;47.932;7.810;2022-08-20T06:21:46;2.83;;;2.53;;
17422;SDS011;8829;47.932;7.810;2022-08-20T06:24:13;2.83;;;2.60;;
17422;SDS011;8829;47.932;7.810;2022-08-20T06:26:40;2.43;;;2.27;;
17422;SDS011;8829;47.932;7.810;2022-08-20T06:29:08;6.53;;;2.80;;
17422;SDS011;8829;47.932;7.810;2022-08-20T06:31:36;3.13;;;2.20;;
17422;SDS011;8829;47.932;7.810;2022-08-20T06:34:04;2.00;;;1.90;;
17422;SDS011;8829;47.932;7.810;2022-08-20T06:36:31;1.70;;;1.60;;
17422;SDS011;8829;47.932;7.810;2022-08-20T06:38:58;1.57;;;1.47;;
17422;SDS011;8829;47.932;7.810;2022-08-20T06:41:25;1.90;;;1.67;;
17422;SDS011;8829;47.932;7.810;2022-08-20T06:43:52;1.60;;;1.50;;
17422;SDS011;8829;47.932;7.810;2022-08-20T06:46:19;1.43;;;1.37;;
17422;SDS011;8829;47.932;7.810;2022-08-20T06:48:49;2.20;;;1.43;;
17422;SDS011;8829;47.932;7.810;2022-08-20T06:51:16;3.77;;;1.90;;
17422;SDS011;8829;47.932;7.810;2022-08-20T06:53:44;2.10;;;2.00;;
17422;SDS011;8829;47.932;7.810;2022-08-20T06:56:11;1.93;;;1.80;;
17422;SDS011;8829;47.932;7.810;2022-08-20T06:58:38;2.10;;;2.00;;
17422;SDS011;8829;47.932;7.810;2022-08-20T07:01:05;2.67;;;2.30;;
17422;SDS011;8829;47.932;7.810;2022-08-20T07:03:33;1.90;;;1.80;;
17422;SDS011;8829;47.932;7.810;2022-08-20T07:06:03;2.53;;;2.33;;
17422;SDS011;8829;47.932;7.810;2022-08-20T07:08:31;4.63;;;2.87;;
17422;SDS011;8829;47.932;7.810;2022-08-20T07:10:59;2.70;;;2.50;;
17422;SDS011;8829;47.932;7.810;2022-08-20T07:13:26;2.87;;;2.67;;
17422;SDS011;8829;47.932;7.810;2022-08-20T07:15:54;2.40;;;2.20;;
17422;SDS011;8829;47.932;7.810;2022-08-20T07:18:21;2.90;;;2.70;;
17422;SDS011;8829;47.932;7.810;2022-08-20T07:20:49;2.80;;;2.60;;
17422;SDS011;8829;47.932;7.810;2022-08-20T07:23:20;2.93;;;2.73;;
17422;SDS011;8829;47.932;7.810;2022-08-20T07:25:47;3.37;;;2.10;;
17422;SDS011;8829;47.932;7.810;2022-08-20T07:28:15;3.53;;;2.37;;
17422;SDS011;8829;47.932;7.810;2022-08-20T07:30:46;2.07;;;1.97;;
17422;SDS011;8829;47.932;7.810;2022-08-20T07:33:33;2.93;;;2.00;;
17422;SDS011;8829;47.932;7.810;2022-08-20T07:36:01;1.97;;;1.87;;
17422;SDS011;8829;47.932;7.810;2022-08-20T07:38:31;1.77;;;1.67;;
17422;SDS011;8829;47.932;7.810;2022-08-20T07:41:00;1.77;;;1.67;;
17422;SDS011;8829;47.932;7.810;2022-08-20T07:43:29;3.13;;;1.83;;
17422;SDS011;8829;47.932;7.810;2022-08-20T07:45:57;2.60;;;1.93;;
17422;SDS011;8829;47.932;7.810;2022-08-20T07:48:26;1.97;;;1.83;;
17422;SDS011;8829;47.932;7.810;2022-08-20T07:50:56;2.13;;;2.03;;
17422;SDS011;8829;47.932;7.810;2022-08-20T07:53:24;3.47;;;2.00;;
17422;SDS011;8829;47.932;7.810;2022-08-20T07:55:53;1.90;;;1.80;;
17422;SDS011;8829;47.932;7.810;2022-08-20T07:58:21;1.70;;;1.60;;
17422;SDS011;8829;47.932;7.810;2022-08-20T08:00:49;1.50;;;1.30;;
17422;SDS011;8829;47.932;7.810;2022-08-20T08:03:16;1.60;;;1.50;;
17422;SDS011;8829;47.932;7.810;2022-08-20T08:05:45;1.97;;;1.77;;
17422;SDS011;8829;47.932;7.810;2022-08-20T08:08:14;1.80;;;1.70;;
17422;SDS011;8829;47.932;7.810;2022-08-20T08:10:46;1.83;;;1.73;;
17422;SDS011;8829;47.932;7.810;2022-08-20T08:13:16;1.10;;;1.10;;
17422;SDS011;8829;47.932;7.810;2022-08-20T08:15:44;1.10;;;1.10;;
17422;SDS011;8829;47.932;7.810;2022-08-20T08:18:14;0.80;;;0.80;;
17422;SDS011;8829;47.932;7.810;2022-08-20T08:20:45;0.80;;;0.80;;
17422;SDS011;8829;47.932;7.810;2022-08-20T08:23:17;0.80;;;0.80;;
17422;SDS011;8829;47.932;7.810;2022-08-20T08:25:44;0.87;;;0.87;;
17422;SDS011;8829;47.932;7.810;2022-08-20T08:28:11;1.10;;;0.97;;
17422;SDS011;8829;47.932;7.810;2022-08-20T08:30:40;1.20;;;1.10;;
17422;SDS011;8829;47.932;7.810;2022-08-20T08:33:16;0.90;;;0.90;;
17422;SDS011;8829;47.932;7.810;2022-08-20T08:35:53;0.80;;;0.80;;
17422;SDS011;8829;47.932;7.810;2022-08-20T08:38:20;0.70;;;0.70;;
17422;SDS011;8829;47.932;7.810;2022-08-20T08:40:49;0.80;;;0.80;;
17422;SDS011;8829;47.932;7.810;2022-08-20T08:43:18;0.80;;;0.80;;
17422;SDS011;8829;47.932;7.810;2022-08-20T08:45:51;0.70;;;0.70;;
17422;SDS011;8829;47.932;7.810;2022-08-20T08:48:23;0.50;;;0.50;;
17422;SDS011;8829;47.932;7.810;2022-08-20T08:50:56;2.27;;;0.60;;
17422;SDS011;8829;47.932;7.810;2022-08-20T08:53:25;0.60;;;0.60;;
17422;SDS011;8829;47.932;7.810;2022-08-20T08:55:56;0.47;;;0.47;;
17422;SDS011;8829;47.932;7.810;2022-08-20T08:58:24;0.37;;;0.37;;
17422;SDS011;8829;47.932;7.810;2022-08-20T09:00:53;0.40;;;0.40;;
17422;SDS011;8829;47.932;7.810;2022-08-20T09:03:22;0.40;;;0.40;;
17422;SDS011;8829;47.932;7.810;2022-08-20T09:05:54;0.40;;;0.40;;
17422;SDS011;8829;47.932;7.810;2022-08-20T09:08:24;1.90;;;0.70;;
17422;SDS011;8829;47.932;7.810;2022-08-20T09:10:59;0.63;;;0.63;;
17422;SDS011;8829;47.932;7.810;2022-08-20T09:13:27;0.70;;;0.70;;
17422;SDS011;8829;47.932;7.810;2022-08-20T09:15:56;0.70;;;0.70;;
17422;SDS011;8829;47.932;7.810;2022-08-20T09:18:23;0.43;;;0.43;;
17422;SDS011;8829;47.932;7.810;2022-08-20T09:20:50;0.60;;;0.60;;
17422;SDS011;8829;47.932;7.810;2022-08-20T09:23:17;0.60;;;0.60;;
17422;SDS011;8829;47.932;7.810;2022-08-20T09:25:44;0.47;;;0.47;;
17422;SDS011;8829;47.932;7.810;2022-08-20T09:28:11;2.17;;;0.90;;
17422;SDS011;8829;47.932;7.810;2022-08-20T09:30:38;1.37;;;0.90;;
17422;SDS011;8829;47.932;7.810;2022-08-20T09:33:06;0.73;;;0.60;;
17422;SDS011;8829;47.932;7.810;2022-08-20T09:35:33;0.60;;;0.60;;
17422;SDS011;8829;47.932;7.810;2022-08-20T09:38:00;0.70;;;0.70;;
17422;SDS011;8829;47.932;7.810;2022-08-20T09:40:27;0.70;;;0.70;;
17422;SDS011;8829;47.932;7.810;2022-08-20T09:42:54;0.70;;;0.70;;
17422;SDS011;8829;47.932;7.810;2022-08-20T09:45:21;0.47;;;0.40;;
17422;SDS011;8829;47.932;7.810;2022-08-20T09:47:49;0.40;;;0.40;;
17422;SDS011;8829;47.932;7.810;2022-08-20T09:50:17;0.73;;;0.73;;
17422;SDS011;8829;47.932;7.810;2022-08-20T09:52:45;0.40;;;0.37;;
17422;SDS011;8829;47.932;7.810;2022-08-20T09:55:16;0.60;;;0.50;;
17422;SDS011;8829;47.932;7.810;2022-08-20T09:57:46;0.60;;;0.60;;
17422;SDS011;8829;47.932;7.810;2022-08-20T10:00:15;1.60;;;0.50;;
17422;SDS011;8829;47.932;7.810;2022-08-20T10:02:43;0.40;;;0.40;;
17422;SDS011;8829;47.932;7.810;2022-08-20T10:05:11;0.40;;;0.40;;
17422;SDS011;8829;47.932;7.810;2022-08-20T10:07:39;0.57;;;0.57;;
17422;SDS011;8829;47.932;7.810;2022-08-20T10:10:09;0.53;;;0.53;;
17422;SDS011;8829;47.932;7.810;2022-08-20T10:12:37;0.77;;;0.50;;
17422;SDS011;8829;47.932;7.810;2022-08-20T10:15:06;1.00;;;0.70;;
17422;SDS011;8829;47.932;7.810;2022-08-20T10:17:35;1.13;;;0.73;;
17422;SDS011;8829;47.932;7.810;2022-08-20T10:20:04;0.67;;;0.67;;
17422;SDS011;8829;47.932;7.810;2022-08-20T10:22:32;0.70;;;0.70;;
17422;SDS011;8829;47.932;7.810;2022-08-20T10:25:00;0.80;;;0.80;;
17422;SDS011;8829;47.932;7.810;2022-08-20T10:27:27;0.57;;;0.57;;
17422;SDS011;8829;47.932;7.810;2022-08-20T10:29:54;2.00;;;0.97;;
17422;SDS011;8829;47.932;7.810;2022-08-20T10:32:21;0.60;;;0.60;;
17422;SDS011;8829;47.932;7.810;2022-08-20T10:34:48;0.63;;;0.63;;
17422;SDS011;8829;47.932;7.810;2022-08-20T10:37:16;0.70;;;0.70;;
17422;SDS011;8829;47.932;7.810;2022-08-20T10:39:45;0.80;;;0.80;;
17422;SDS011;8829;47.932;7.810;2022-08-20T10:42:14;0.70;;;0.70;;
17422;SDS011;8829;47.932;7.810;2022-08-20T10:44:41;0.70;;;0.70;;
17422;SDS011;8829;47.932;7.810;2022-08-20T10:47:15;1.40;;;1.30;;
17422;SDS011;8829;47.932;7.810;2022-08-20T10:49:45;0.90;;;0.90;;
17422;SDS011;8829;47.932;7.810;2022-08-20T10:52:13;0.77;;;0.77;;
17422;SDS011;8829;47.932;7.810;2022-08-20T10:54:40;0.80;;;0.80;;
17422;SDS011;8829;47.932;7.810;2022-08-20T10:57:08;0.77;;;0.77;;
17422;SDS011;8829;47.932;7.810;2022-08-20T10:59:40;0.73;;;0.73;;
17422;SDS011;8829;47.932;7.810;2022-08-20T11:02:08;0.87;;;0.87;;
17422;SDS011;8829;47.932;7.810;2022-08-20T11:04:35;0.80;;;0.80;;
17422;SDS011;8829;47.932;7.810;2022-08-20T11:07:12;0.70;;;0.70;;
17422;SDS011;8829;47.932;7.810;2022-08-20T11:09:41;0.60;;;0.60;;
17422;SDS011;8829;47.932;7.810;2022-08-20T11:12:09;0.60;;;0.60;;
17422;SDS011;8829;47.932;7.810;2022-08-20T11:14:36;0.93;;;0.60;;
17422;SDS011;8829;47.932;7.810;2022-08-20T11:17:06;0.53;;;0.53;;
17422;SDS011;8829;47.932;7.810;2022-08-20T11:19:37;0.60;;;0.60;;
17422;SDS011;8829;47.932;7.810;2022-08-20T11:22:04;0.43;;;0.43;;
17422;SDS011;8829;47.932;7.810;2022-08-20T11:24:31;0.70;;;0.60;;
17422;SDS011;8829;47.932;7.810;2022-08-20T11:26:58;0.40;;;0.40;;
17422;SDS011;8829;47.932;7.810;2022-08-20T11:29:26;1.67;;;0.43;;
17422;SDS011;8829;47.932;7.810;2022-08-20T11:31:53;0.60;;;0.60;;
17422;SDS011;8829;47.932;7.810;2022-08-20T11:34:21;1.00;;;0.40;;
17422;SDS011;8829;47.932;7.810;2022-08-20T11:36:48;0.43;;;0.33;;
17422;SDS011;8829;47.932;7.810;2022-08-20T11:39:15;0.40;;;0.40;;
17422;SDS011;8829;47.932;7.810;2022-08-20T11:41:42;0.50;;;0.50;;
17422;SDS011;8829;47.932;7.810;2022-08-20T11:44:10;0.37;;;0.37;;
17422;SDS011;8829;47.932;7.810;2022-08-20T11:46:37;0.37;;;0.37;;
17422;SDS011;8829;47.932;7.810;2022-08-20T11:49:04;1.80;;;0.60;;
17422;SDS011;8829;47.932;7.810;2022-08-20T11:51:32;0.60;;;0.60;;
17422;SDS011;8829;47.932;7.810;2022-08-20T11:54:01;0.40;;;0.40;;
17422;SDS011;8829;47.932;7.810;2022-08-20T11:56:28;0.37;;;0.37;;
17422;SDS011;8829;47.932;7.810;2022-08-20T11:58:55;0.30;;;0.30;;
17422;SDS011;8829;47.932;7.810;2022-08-20T12:01:22;0.40;;;0.40;;
17422;SDS011;8829;47.932;7.810;2022-08-20T12:03:49;0.30;;;0.30;;
17422;SDS011;8829;47.932;7.810;2022-08-20T12:06:16;0.40;;;0.40;;
17422;SDS011;8829;47.932;7.810;2022-08-20T12:08:44;0.43;;;0.43;;
17422;SDS011;8829;47.932;7.810;2022-08-20T12:11:11;0.50;;;0.50;;
17422;SDS011;8829;47.932;7.810;2022-08-20T12:13:39;0.40;;;0.30;;
17422;SDS011;8829;47.932;7.810;2022-08-20T12:16:06;0.30;;;0.30;;
17422;SDS011;8829;47.932;7.810;2022-08-20T12:18:33;0.30;;;0.30;;
17422;SDS011;8829;47.932;7.810;2022-08-20T12:21:00;0.20;;;0.20;;
17422;SDS011;8829;47.932;7.810;2022-08-20T12:23:27;0.20;;;0.20;;
17422;SDS011;8829;47.932;7.810;2022-08-20T12:25:55;0.20;;;0.20;;
17422;SDS011;8829;47.932;7.810;2022-08-20T12:28:26;0.20;;;0.20;;
17422;SDS011;8829;47.932;7.810;2022-08-20T12:30:54;0.30;;;0.30;;
17422;SDS011;8829;47.932;7.810;2022-08-20T12:33:21;0.40;;;0.40;;
17422;SDS011;8829;47.932;7.810;2022-08-20T12:35:48;0.33;;;0.33;;
17422;SDS011;8829;47.932;7.810;2022-08-20T12:38:15;0.30;;;0.30;;
17422;SDS011;8829;47.932;7.810;2022-08-20T12:40:42;0.20;;;0.20;;
17422;SDS011;8829;47.932;7.810;2022-08-20T12:43:11;0.30;;;0.30;;
17422;SDS011;8829;47.932;7.810;2022-08-20T12:45:37;0.40;;;0.40;;
17422;SDS011;8829;47.932;7.810;2022-08-20T12:48:06;0.20;;;0.20;;
17422;SDS011;8829;47.932;7.810;2022-08-20T12:50:34;0.50;;;0.40;;
17422;SDS011;8829;47.932;7.810;2022-08-20T12:53:02;0.20;;;0.20;;
17422;SDS011;8829;47.932;7.810;2022-08-20T12:55:30;0.30;;;0.30;;
17422;SDS011;8829;47.932;7.810;2022-08-20T12:57:58;0.30;;;0.30;;
17422;SDS011;8829;47.932;7.810;2022-08-20T13:00:29;0.73;;;0.30;;
17422;SDS011;8829;47.932;7.810;2022-08-20T13:02:58;0.30;;;0.30;;
17422;SDS011;8829;47.932;7.810;2022-08-20T13:05:27;0.30;;;0.30;;
17422;SDS011;8829;47.932;7.810;2022-08-20T13:07:55;0.37;;;0.37;;
17422;SDS011;8829;47.932;7.810;2022-08-20T13:10:23;0.40;;;0.40;;
17422;SDS011;8829;47.932;7.810;2022-08-20T13:12:51;0.37;;;0.37;;
17422;SDS011;8829;47.932;7.810;2022-08-20T13:15:19;0.30;;;0.30;;
17422;SDS011;8829;47.932;7.810;2022-08-20T13:17:50;0.37;;;0.37;;
17422;SDS011;8829;47.932;7.810;2022-08-20T13:20:18;0.83;;;0.30;;
17422;SDS011;8829;47.932;7.810;2022-08-20T13:22:45;0.30;;;0.30;;
17422;SDS011;8829;47.932;7.810;2022-08-20T13:25:12;0.63;;;0.43;;
17422;SDS011;8829;47.932;7.810;2022-08-20T13:27:40;1.77;;;0.50;;
17422;SDS011;8829;47.932;7.810;2022-08-20T13:30:08;0.40;;;0.40;;
17422;SDS011;8829;47.932;7.810;2022-08-20T13:32:36;0.53;;;0.47;;
17422;SDS011;8829;47.932;7.810;2022-08-20T13:35:05;0.57;;;0.57;;
17422;SDS011;8829;47.932;7.810;2022-08-20T13:37:32;0.60;;;0.60;;
17422;SDS011;8829;47.932;7.810;2022-08-20T13:40:00;0.60;;;0.60;;
17422;SDS011;8829;47.932;7.810;2022-08-20T13:42:27;2.77;;;0.60;;
17422;SDS011;8829;47.932;7.810;2022-08-20T13:44:54;1.43;;;0.43;;
17422;SDS011;8829;47.932;7.810;2022-08-20T13:47:22;0.60;;;0.60;;
17422;SDS011;8829;47.932;7.810;2022-08-20T13:49:54;0.50;;;0.50;;
17422;SDS011;8829;47.932;7.810;2022-08-20T13:52:23;0.60;;;0.60;;
17422;SDS011;8829;47.932;7.810;2022-08-20T13:54:51;0.57;;;0.57;;
17422;SDS011;8829;47.932;7.810;2022-08-20T13:57:21;0.50;;;0.50;;
17422;SDS011;8829;47.932;7.810;2022-08-20T13:59:52;0.47;;;0.47;;
17422;SDS011;8829;47.932;7.810;2022-08-20T14:02:20;0.70;;;0.70;;
17422;SDS011;8829;47.932;7.810;2022-08-20T14:04:47;0.40;;;0.40;;
17422;SDS011;8829;47.932;7.810;2022-08-20T14:07:17;0.63;;;0.60;;
17422;SDS011;8829;47.932;7.810;2022-08-20T14:09:48;0.50;;;0.50;;
17422;SDS011;8829;47.932;7.810;2022-08-20T14:12:17;0.60;;;0.60;;
17422;SDS011;8829;47.932;7.810;2022-08-20T14:14:46;0.60;;;0.60;;
17422;SDS011;8829;47.932;7.810;2022-08-20T14:17:15;0.70;;;0.70;;
17422;SDS011;8829;47.932;7.810;2022-08-20T14:19:43;0.57;;;0.57;;
17422;SDS011;8829;47.932;7.810;2022-08-20T14:22:11;1.80;;;0.60;;
17422;SDS011;8829;47.932;7.810;2022-08-20T14:24:38;0.50;;;0.50;;
17422;SDS011;8829;47.932;7.810;2022-08-20T14:27:07;0.50;;;0.50;;
17422;SDS011;8829;47.932;7.810;2022-08-20T14:29:34;0.40;;;0.40;;
17422;SDS011;8829;47.932;7.810;2022-08-20T14:32:03;0.57;;;0.57;;
17422;SDS011;8829;47.932;7.810;2022-08-20T14:34:31;0.70;;;0.70;;
17422;SDS011;8829;47.932;7.810;2022-08-20T14:37:07;0.50;;;0.50;;
17422;SDS011;8829;47.932;7.810;2022-08-20T14:39:37;0.70;;;0.70;;
17422;SDS011;8829;47.932;7.810;2022-08-20T14:42:04;0.57;;;0.57;;
17422;SDS011;8829;47.932;7.810;2022-08-20T14:44:32;0.60;;;0.60;;
17422;SDS011;8829;47.932;7.810;2022-08-20T14:47:08;0.70;;;0.70;;
17422;SDS011;8829;47.932;7.810;2022-08-20T14:49:36;0.90;;;0.90;;
17422;SDS011;8829;47.932;7.810;2022-08-20T14:52:03;0.70;;;0.70;;
17422;SDS011;8829;47.932;7.810;2022-08-20T14:54:31;0.70;;;0.70;;
17422;SDS011;8829;47.932;7.810;2022-08-20T14:56:58;0.57;;;0.57;;
17422;SDS011;8829;47.932;7.810;2022-08-20T14:59:25;1.60;;;0.70;;
17422;SDS011;8829;47.932;7.810;2022-08-20T15:01:54;1.80;;;0.77;;
17422;SDS011;8829;47.932;7.810;2022-08-20T15:04:21;0.97;;;0.77;;
17422;SDS011;8829;47.932;7.810;2022-08-20T15:06:48;0.50;;;0.50;;
17422;SDS011;8829;47.932;7.810;2022-08-20T15:09:15;0.80;;;0.77;;